Volga-4011 — UBNJ — position and weather

sailwx.info

Track history (hours):
 
Tides and Currents Weather Stations Pressure Air Temp Water Temp Dewpoint Dewpoint Depression Visibility Wind Speed Wind Dir Waves Ship Positions

Volga-4011

Last reported at 2015-May-05 10:19 UTC. Time now 2015-May-06 01:23 UTC.
Position N 31°45' E 124°04'.

Length 140 m; draft 4.8 m.

Type: Cargo ship. MMSI: 273358200.

Date/timePositionNaut miles runAvg speedWind from/ knotsBaromVisibWave heightAir tempDewpointWater temp
2015-May-05 10:19N 31°45' E 124°04'109 8.4
2015-May-04 21:18N 31°04' E 122°05'811.2
2015-May-04 20:33N 31°07' E 121°56'1110.9
2015-May-04 19:33N 31°15' E 121°46'9 9.0
2015-May-04 18:33N 31°21' E 121°39'7 7.4
2015-May-04 17:33N 31°25' E 121°31'6 6.1
2015-May-04 16:33N 31°29' E 121°26'7 6.9
2015-May-04 15:33N 31°33' E 121°20'9 9.1
2015-May-04 14:33N 31°40' E 121°12'1410.9
2015-May-04 13:14N 31°47' E 120°58'1 0.1
2015-May-04 07:24N 31°46' E 120°57'0 0.0
2015-May-04 01:30N 31°46' E 120°57'0 0.0
2015-May-04 00:28N 31°46' E 120°57'0 0.0
2015-May-03 23:31N 31°46' E 120°57'0 0.0
2015-May-03 22:29N 31°46' E 120°57'0 0.0
2015-May-03 21:24N 31°46' E 120°57'0 0.0
2015-May-03 20:31N 31°46' E 120°57'0 0.0
2015-May-03 16:33N 31°46' E 120°57'0 0.0
2015-May-03 15:04N 31°46' E 120°57'0 0.0
2015-May-03 13:23N 31°46' E 120°57'0 0.0
2015-May-03 11:07N 31°46' E 120°57'0 0.0
2015-May-03 09:13N 31°46' E 120°57'0 0.0
2015-May-03 08:25N 31°46' E 120°57'0 0.0
2015-May-03 07:31N 31°46' E 120°57'0 0.0
2015-May-03 06:20N 31°46' E 120°57'4 2.0
2015-May-03 04:10N 31°45' E 121°02'0 0.0
2015-May-03 03:17N 31°45' E 121°02'0 0.0
2015-May-02 20:33N 31°45' E 121°02'0 0.0
2015-May-02 18:23N 31°45' E 121°02'0 0.0
2015-May-02 17:12N 31°45' E 121°02'0 0.0
2015-May-02 13:32N 31°45' E 121°02'0 0.0
2015-May-02 12:30N 31°45' E 121°02'0 0.0
2015-May-02 11:28N 31°45' E 121°02'0 0.0
2015-May-02 10:13N 31°45' E 121°02'0 0.0
2015-May-02 09:29N 31°45' E 121°02'2 1.8
2015-May-02 08:30N 31°44' E 121°04'2 1.7
2015-May-02 07:04N 31°44' E 121°07'0 0.2
2015-May-02 06:31N 31°44' E 121°07'0 0.0
2015-May-02 05:23N 31°44' E 121°07'0 0.0
2015-May-02 03:21N 31°44' E 121°07'0 0.1
2015-May-02 02:28N 31°44' E 121°07'0 0.1
2015-May-02 01:28N 31°44' E 121°07'0 0.0
2015-May-02 00:29N 31°44' E 121°07'0 0.0
2015-May-01 23:30N 31°44' E 121°07'0 0.0
2015-May-01 22:30N 31°44' E 121°07'0 0.0
2015-May-01 21:31N 31°44' E 121°07'0 0.0
2015-May-01 20:32N 31°44' E 121°07'0 0.2
2015-May-01 19:32N 31°44' E 121°07'0 0.0
2015-May-01 18:09N 31°44' E 121°07'0 0.0
2015-May-01 16:11N 31°44' E 121°07'0 0.0
2015-May-01 15:23N 31°44' E 121°07'0 0.1
2015-May-01 13:33N 31°44' E 121°07'0 0.2
2015-May-01 12:31N 31°44' E 121°07'0 0.0
2015-May-01 11:17N 31°44' E 121°07'0 0.0
2015-May-01 10:32N 31°44' E 121°07'0 0.0
2015-May-01 09:27N 31°44' E 121°07'0 0.0
2015-May-01 08:16N 31°44' E 121°07'0 0.1
2015-May-01 07:22N 31°44' E 121°07'0 0.2
2015-May-01 06:29N 31°45' E 121°07'0 0.0
2015-May-01 05:18N 31°45' E 121°07'0 0.0
2015-May-01 04:18N 31°45' E 121°07'0 0.2
2015-May-01 03:33N 31°45' E 121°07'4 3.2
2015-May-01 02:21N 31°45' E 121°02'0 0.1
2015-May-01 01:31N 31°45' E 121°02'0 0.0
2015-May-01 00:25N 31°45' E 121°02'0 0.0
2015-Apr-30 23:29N 31°45' E 121°02'0 0.1
2015-Apr-30 22:33N 31°45' E 121°02'0 0.0
2015-Apr-30 21:33N 31°45' E 121°02'0 0.0
2015-Apr-30 20:28N 31°45' E 121°02'0 0.0
2015-Apr-30 19:26N 31°45' E 121°02'0 0.1
2015-Apr-30 18:29N 31°45' E 121°02'0 0.0
2015-Apr-30 17:27N 31°45' E 121°02'0 0.0
2015-Apr-30 16:07N 31°45' E 121°02'0 0.0
2015-Apr-30 15:31N 31°45' E 121°02'0 0.0
2015-Apr-30 14:11N 31°45' E 121°02'0 0.0
2015-Apr-30 13:30N 31°45' E 121°02'0 0.0
2015-Apr-30 12:33N 31°45' E 121°02'0 0.0
2015-Apr-30 11:19N 31°45' E 121°02'0 0.0
2015-Apr-30 10:26N 31°45' E 121°02'0 0.1
2015-Apr-30 09:32N 31°45' E 121°02'0 0.0
2015-Apr-30 07:19N 31°45' E 121°02'0 0.0
2015-Apr-30 00:32N 31°45' E 121°02'0 0.0
2015-Apr-29 23:18N 31°45' E 121°02'0 0.0
2015-Apr-29 21:14N 31°45' E 121°02'0 0.1
2015-Apr-29 20:17N 31°45' E 121°02'0 0.0
2015-Apr-29 17:07N 31°45' E 121°02'0 0.0
2015-Apr-29 11:14N 31°45' E 121°02'4 5.3
2015-Apr-29 10:31N 31°44' E 121°07'6 5.9
2015-Apr-29 09:33N 31°40' E 121°12'5 5.5
2015-Apr-29 08:33N 31°37' E 121°17'6 6.1
2015-Apr-29 07:33N 31°32' E 121°21'6 5.9
2015-Apr-29 06:33N 31°29' E 121°27'6 5.7
2015-Apr-29 05:33N 31°25' E 121°32'6 6.4
2015-Apr-29 04:33N 31°22' E 121°38'7 6.6
2015-Apr-29 03:33N 31°17' E 121°44'8 7.8
2015-Apr-29 02:33N 31°11' E 121°50'8 8.1
2015-Apr-29 01:33N 31°07' E 121°58'9 8.3
2015-Apr-29 00:31N 31°04' E 122°07'  
2015-Apr-26 12:21N 35°04' E 129°19'  
Track history (hours):
 
Tides and Currents Weather Stations Pressure Air Temp Water Temp Dewpoint Dewpoint Depression Visibility Wind Speed Wind Dir Waves Ship Positions

Volga-4011

Last reported at 2015-May-05 10:19 UTC. Time now 2015-May-06 01:23 UTC.
Position N 31°45' E 124°04'.

Length 140 m; draft 4.8 m.

Type: Cargo ship. MMSI: 273358200.

Date/timePositionNaut miles runAvg speedWind from/ knotsBaromVisibWave heightAir tempDewpointWater temp
2015-May-05 10:19N 31°45' E 124°04'109 8.4
2015-May-04 21:18N 31°04' E 122°05'811.2
2015-May-04 20:33N 31°07' E 121°56'1110.9
2015-May-04 19:33N 31°15' E 121°46'9 9.0
2015-May-04 18:33N 31°21' E 121°39'7 7.4
2015-May-04 17:33N 31°25' E 121°31'6 6.1
2015-May-04 16:33N 31°29' E 121°26'7 6.9
2015-May-04 15:33N 31°33' E 121°20'9 9.1
2015-May-04 14:33N 31°40' E 121°12'1410.9
2015-May-04 13:14N 31°47' E 120°58'1 0.1
2015-May-04 07:24N 31°46' E 120°57'0 0.0
2015-May-04 01:30N 31°46' E 120°57'0 0.0
2015-May-04 00:28N 31°46' E 120°57'0 0.0
2015-May-03 23:31N 31°46' E 120°57'0 0.0
2015-May-03 22:29N 31°46' E 120°57'0 0.0
2015-May-03 21:24N 31°46' E 120°57'0 0.0
2015-May-03 20:31N 31°46' E 120°57'0 0.0
2015-May-03 16:33N 31°46' E 120°57'0 0.0
2015-May-03 15:04N 31°46' E 120°57'0 0.0
2015-May-03 13:23N 31°46' E 120°57'0 0.0
2015-May-03 11:07N 31°46' E 120°57'0 0.0
2015-May-03 09:13N 31°46' E 120°57'0 0.0
2015-May-03 08:25N 31°46' E 120°57'0 0.0
2015-May-03 07:31N 31°46' E 120°57'0 0.0
2015-May-03 06:20N 31°46' E 120°57'4 2.0
2015-May-03 04:10N 31°45' E 121°02'0 0.0
2015-May-03 03:17N 31°45' E 121°02'0 0.0
2015-May-02 20:33N 31°45' E 121°02'0 0.0
2015-May-02 18:23N 31°45' E 121°02'0 0.0
2015-May-02 17:12N 31°45' E 121°02'0 0.0
2015-May-02 13:32N 31°45' E 121°02'0 0.0
2015-May-02 12:30N 31°45' E 121°02'0 0.0
2015-May-02 11:28N 31°45' E 121°02'0 0.0
2015-May-02 10:13N 31°45' E 121°02'0 0.0
2015-May-02 09:29N 31°45' E 121°02'2 1.8
2015-May-02 08:30N 31°44' E 121°04'2 1.7
2015-May-02 07:04N 31°44' E 121°07'0 0.2
2015-May-02 06:31N 31°44' E 121°07'0 0.0
2015-May-02 05:23N 31°44' E 121°07'0 0.0
2015-May-02 03:21N 31°44' E 121°07'0 0.1
2015-May-02 02:28N 31°44' E 121°07'0 0.1
2015-May-02 01:28N 31°44' E 121°07'0 0.0
2015-May-02 00:29N 31°44' E 121°07'0 0.0
2015-May-01 23:30N 31°44' E 121°07'0 0.0
2015-May-01 22:30N 31°44' E 121°07'0 0.0
2015-May-01 21:31N 31°44' E 121°07'0 0.0
2015-May-01 20:32N 31°44' E 121°07'0 0.2
2015-May-01 19:32N 31°44' E 121°07'0 0.0
2015-May-01 18:09N 31°44' E 121°07'0 0.0
2015-May-01 16:11N 31°44' E 121°07'0 0.0
2015-May-01 15:23N 31°44' E 121°07'0 0.1
2015-May-01 13:33N 31°44' E 121°07'0 0.2
2015-May-01 12:31N 31°44' E 121°07'0 0.0
2015-May-01 11:17N 31°44' E 121°07'0 0.0
2015-May-01 10:32N 31°44' E 121°07'0 0.0
2015-May-01 09:27N 31°44' E 121°07'0 0.0
2015-May-01 08:16N 31°44' E 121°07'0 0.1
2015-May-01 07:22N 31°44' E 121°07'0 0.2
2015-May-01 06:29N 31°45' E 121°07'0 0.0
2015-May-01 05:18N 31°45' E 121°07'0 0.0
2015-May-01 04:18N 31°45' E 121°07'0 0.2
2015-May-01 03:33N 31°45' E 121°07'4 3.2
2015-May-01 02:21N 31°45' E 121°02'0 0.1
2015-May-01 01:31N 31°45' E 121°02'0 0.0
2015-May-01 00:25N 31°45' E 121°02'0 0.0
2015-Apr-30 23:29N 31°45' E 121°02'0 0.1
2015-Apr-30 22:33N 31°45' E 121°02'0 0.0
2015-Apr-30 21:33N 31°45' E 121°02'0 0.0
2015-Apr-30 20:28N 31°45' E 121°02'0 0.0
2015-Apr-30 19:26N 31°45' E 121°02'0 0.1
2015-Apr-30 18:29N 31°45' E 121°02'0 0.0
2015-Apr-30 17:27N 31°45' E 121°02'0 0.0
2015-Apr-30 16:07N 31°45' E 121°02'0 0.0
2015-Apr-30 15:31N 31°45' E 121°02'0 0.0
2015-Apr-30 14:11N 31°45' E 121°02'0 0.0
2015-Apr-30 13:30N 31°45' E 121°02'0 0.0
2015-Apr-30 12:33N 31°45' E 121°02'0 0.0
2015-Apr-30 11:19N 31°45' E 121°02'0 0.0
2015-Apr-30 10:26N 31°45' E 121°02'0 0.1
2015-Apr-30 09:32N 31°45' E 121°02'0 0.0
2015-Apr-30 07:19N 31°45' E 121°02'0 0.0
2015-Apr-30 00:32N 31°45' E 121°02'0 0.0
2015-Apr-29 23:18N 31°45' E 121°02'0 0.0
2015-Apr-29 21:14N 31°45' E 121°02'0 0.1
2015-Apr-29 20:17N 31°45' E 121°02'0 0.0
2015-Apr-29 17:07N 31°45' E 121°02'0 0.0
2015-Apr-29 11:14N 31°45' E 121°02'4 5.3
2015-Apr-29 10:31N 31°44' E 121°07'6 5.9
2015-Apr-29 09:33N 31°40' E 121°12'5 5.5
2015-Apr-29 08:33N 31°37' E 121°17'6 6.1
2015-Apr-29 07:33N 31°32' E 121°21'6 5.9
2015-Apr-29 06:33N 31°29' E 121°27'6 5.7
2015-Apr-29 05:33N 31°25' E 121°32'6 6.4
2015-Apr-29 04:33N 31°22' E 121°38'7 6.6
2015-Apr-29 03:33N 31°17' E 121°44'8 7.8
2015-Apr-29 02:33N 31°11' E 121°50'8 8.1
2015-Apr-29 01:33N 31°07' E 121°58'9 8.3
2015-Apr-29 00:31N 31°04' E 122°07'  
2015-Apr-26 12:21N 35°04' E 129°19'  

Dump ship's entire track history